createdAt,value
2019-04-06T00:00:27.625Z,84.03
2019-04-06T00:02:57.085Z,78.40
2019-04-06T00:05:26.266Z,71.10
2019-04-06T00:07:55.564Z,74.25
2019-04-06T00:10:24.819Z,74.95
2019-04-06T00:12:54.163Z,71.47
2019-04-06T00:15:23.486Z,75.05
2019-04-06T00:17:52.695Z,81.17
2019-04-06T00:20:22.963Z,76.90
2019-04-06T00:22:52.185Z,81.90
2019-04-06T00:25:21.380Z,91.33
2019-04-06T00:27:50.726Z,94.67
2019-04-06T00:30:21.001Z,94.62
2019-04-06T00:32:55.193Z,86.22
2019-04-06T00:35:24.468Z,82.67
2019-04-06T00:37:53.686Z,79.90
2019-04-06T00:40:22.993Z,77.85
2019-04-06T00:42:52.542Z,78.67
2019-04-06T00:45:21.750Z,73.83
2019-04-06T00:47:51.056Z,77.70
2019-04-06T00:50:21.607Z,72.20
2019-04-06T00:52:50.882Z,71.60
2019-04-06T00:55:20.085Z,79.83
2019-04-06T00:57:49.276Z,66.45
2019-04-06T01:00:18.757Z,67.40
2019-04-06T01:02:47.961Z,68.12
2019-04-06T01:05:17.288Z,67.00
2019-04-06T01:07:46.584Z,64.65
2019-04-06T01:10:16.012Z,62.95
2019-04-06T01:12:45.309Z,58.68
2019-04-06T01:15:16.228Z,62.80
2019-04-06T01:17:45.488Z,62.98
2019-04-06T01:20:19.290Z,60.98
2019-04-06T01:22:48.589Z,60.87
2019-04-06T01:25:17.917Z,59.70
2019-04-06T01:27:47.193Z,60.90
2019-04-06T01:30:18.113Z,60.78
2019-04-06T01:32:47.416Z,58.70
2019-04-06T01:35:16.607Z,56.08
2019-04-06T01:37:45.887Z,57.40
2019-04-06T01:40:15.246Z,55.65
2019-04-06T01:42:44.434Z,57.93
2019-04-06T01:45:13.796Z,54.15
2019-04-06T01:47:42.980Z,61.40
2019-04-06T01:50:12.492Z,62.55
2019-04-06T01:52:41.763Z,61.15
2019-04-06T01:55:12.461Z,60.88
2019-04-06T01:57:41.869Z,59.60
2019-04-06T02:00:12.811Z,61.13
2019-04-06T02:02:44.428Z,60.65
2019-04-06T02:05:13.883Z,58.28
2019-04-06T02:07:43.096Z,61.60
2019-04-06T02:10:13.692Z,63.40
2019-04-06T02:12:42.936Z,67.45
2019-04-06T02:15:12.490Z,71.00
2019-04-06T02:17:41.873Z,68.33
2019-04-06T02:20:11.202Z,65.20
2019-04-06T02:22:40.437Z,67.27
2019-04-06T02:27:08.570Z,67.17
2019-04-06T02:29:37.756Z,72.67
2019-04-06T02:32:28.547Z,76.80
2019-04-06T02:35:22.837Z,71.87
2019-04-06T02:38:09.901Z,73.37
2019-04-06T02:40:46.819Z,74.43
2019-04-06T02:43:19.126Z,70.03
2019-04-06T02:45:48.406Z,68.73
2019-04-06T02:48:20.668Z,67.40
2019-04-06T02:50:49.961Z,67.40
2019-04-06T02:53:19.288Z,73.62
2019-04-06T02:55:49.705Z,81.97
2019-04-06T02:58:18.976Z,77.25
2019-04-06T03:00:48.400Z,85.22
2019-04-06T03:03:17.576Z,86.57
2019-04-06T03:05:49.572Z,81.63
2019-04-06T03:08:18.937Z,87.22
2019-04-06T03:10:48.102Z,100.62
2019-04-06T03:13:17.385Z,95.87
2019-04-06T03:15:47.727Z,90.38
2019-04-06T03:18:16.872Z,89.80
2019-04-06T03:20:46.910Z,94.58
2019-04-06T03:23:16.324Z,91.20
2019-04-06T03:25:46.029Z,100.53
2019-04-06T03:28:15.247Z,89.05
2019-04-06T03:30:44.781Z,94.77
2019-04-06T03:33:35.739Z,91.15
2019-04-06T03:36:05.619Z,88.50
2019-04-06T03:38:34.881Z,92.33
2019-04-06T03:41:05.249Z,89.55
2019-04-06T03:43:34.885Z,94.42
2019-04-06T03:46:04.168Z,102.87
2019-04-06T03:48:33.470Z,101.60
2019-04-06T03:51:02.658Z,97.50
2019-04-06T03:53:32.180Z,92.82
2019-04-06T03:56:01.341Z,98.33
2019-04-06T03:58:30.583Z,110.03
2019-04-06T04:00:59.815Z,86.97
2019-04-06T04:03:29.007Z,90.95
2019-04-06T04:05:58.323Z,94.87
2019-04-06T04:08:27.742Z,97.40
2019-04-06T04:10:57.192Z,91.15
2019-04-06T04:13:26.555Z,96.37
2019-04-06T04:15:57.160Z,99.65
2019-04-06T04:18:26.653Z,92.02
2019-04-06T04:20:56.174Z,104.63
2019-04-06T04:23:25.365Z,103.20
2019-04-06T04:25:54.558Z,108.20
2019-04-06T04:28:23.937Z,118.67
2019-04-06T04:30:54.614Z,117.50
2019-04-06T04:33:23.905Z,123.55
2019-04-06T04:35:53.181Z,114.77
2019-04-06T04:38:22.756Z,122.75
2019-04-06T04:40:51.939Z,120.72
2019-04-06T04:43:21.169Z,121.62
2019-04-06T04:45:51.005Z,121.70
2019-04-06T04:48:20.136Z,134.90
2019-04-06T04:50:49.413Z,123.38
2019-04-06T04:53:18.970Z,122.35
2019-04-06T04:55:48.102Z,135.90
2019-04-06T04:58:17.367Z,131.93
2019-04-06T05:00:46.565Z,137.32
2019-04-06T05:03:15.797Z,136.00
2019-04-06T05:05:44.970Z,140.05
2019-04-06T05:08:14.239Z,137.72
2019-04-06T05:10:43.390Z,138.43
2019-04-06T05:13:12.588Z,146.93
2019-04-06T05:16:21.987Z,145.22
2019-04-06T05:18:51.166Z,144.90
2019-04-06T05:21:20.355Z,155.47
2019-04-06T05:23:49.722Z,159.35
2019-04-06T05:26:18.896Z,151.50
2019-04-06T05:28:48.101Z,162.87
2019-04-06T05:31:17.286Z,154.27
2019-04-06T05:33:46.474Z,155.52
2019-04-06T05:36:15.900Z,155.20
2019-04-06T05:38:45.085Z,156.60
2019-04-06T05:41:14.290Z,166.85
2019-04-06T05:43:43.530Z,166.50
2019-04-06T05:46:12.941Z,154.47
2019-04-06T05:48:42.131Z,165.25
2019-04-06T05:51:11.453Z,158.13
2019-04-06T05:53:40.718Z,174.50
2019-04-06T05:56:10.354Z,167.77
2019-04-06T05:58:40.827Z,180.12
2019-04-06T06:01:11.327Z,188.45
2019-04-06T06:03:41.340Z,177.90
2019-04-06T06:06:12.573Z,182.93
2019-04-06T06:08:41.828Z,191.88
2019-04-06T06:11:11.026Z,182.20
2019-04-06T06:13:40.481Z,196.12
2019-04-06T06:16:11.511Z,184.87
2019-04-06T06:18:40.633Z,197.55
2019-04-06T06:21:09.806Z,186.22
2019-04-06T06:23:39.022Z,181.82
2019-04-06T06:26:08.323Z,159.50
2019-04-06T06:28:39.272Z,146.98
2019-04-06T06:31:08.571Z,158.18
2019-04-06T06:33:37.822Z,156.78
2019-04-06T06:36:07.058Z,164.37
2019-04-06T06:38:36.271Z,162.90
2019-04-06T06:41:05.561Z,161.00
2019-04-06T06:43:34.993Z,157.12
2019-04-06T06:46:06.664Z,152.83
2019-04-06T06:48:35.920Z,157.43
2019-04-06T06:51:05.466Z,154.15
2019-04-06T06:53:36.482Z,145.20
2019-04-06T06:56:05.717Z,153.35
2019-04-06T06:58:34.889Z,154.23
2019-04-06T07:01:05.379Z,150.10
2019-04-06T07:03:34.613Z,150.62
2019-04-06T07:06:03.800Z,152.60
2019-04-06T07:08:33.063Z,154.75
2019-04-06T07:11:05.581Z,145.97
2019-04-06T07:13:34.757Z,145.22
2019-04-06T07:16:03.938Z,146.50
2019-04-06T07:18:33.208Z,141.37
2019-04-06T07:21:02.392Z,139.40
2019-04-06T07:23:31.544Z,136.28
2019-04-06T07:26:00.772Z,134.27
2019-04-06T07:28:37.829Z,136.80
2019-04-06T07:31:00.809Z,138.62
2019-04-06T07:33:30.104Z,128.47
2019-04-06T07:35:59.304Z,135.10
2019-04-06T07:38:28.508Z,133.35
2019-04-06T07:40:57.932Z,133.87
2019-04-06T07:43:27.193Z,139.65
2019-04-06T07:45:58.884Z,135.52
2019-04-06T07:48:28.078Z,135.00
2019-04-06T07:50:57.328Z,136.93
2019-04-06T07:53:26.538Z,135.10
2019-04-06T07:55:55.741Z,137.65
2019-04-06T07:58:26.196Z,134.87
2019-04-06T08:00:55.368Z,134.25
2019-04-06T08:03:24.719Z,130.32
2019-04-06T08:05:53.919Z,131.10
2019-04-06T08:08:23.488Z,133.90
2019-04-06T08:10:52.741Z,132.95
2019-04-06T08:13:22.006Z,133.30
2019-04-06T08:15:51.217Z,130.07
2019-04-06T08:18:21.406Z,126.47
2019-04-06T08:20:50.674Z,120.08
2019-04-06T08:23:19.974Z,125.50
2019-04-06T08:25:49.211Z,127.47
2019-04-06T08:28:18.660Z,122.53
2019-04-06T08:30:50.071Z,124.62
2019-04-06T08:33:22.219Z,128.75
2019-04-06T08:35:51.503Z,128.05
2019-04-06T08:38:22.288Z,124.72
2019-04-06T08:40:51.474Z,116.22
2019-04-06T08:43:20.698Z,119.20
2019-04-06T08:45:49.987Z,123.35
2019-04-06T08:48:19.196Z,123.07
2019-04-06T08:50:48.526Z,124.33
2019-04-06T08:53:19.258Z,117.42
2019-04-06T08:55:48.753Z,118.30
2019-04-06T08:58:17.939Z,117.93
2019-04-06T09:00:47.561Z,118.45
2019-04-06T09:03:17.121Z,118.15
2019-04-06T09:05:46.315Z,116.13
2019-04-06T09:08:16.551Z,112.45
2019-04-06T09:10:45.865Z,118.17
2019-04-06T09:13:15.386Z,119.72
2019-04-06T09:15:44.674Z,127.85
2019-04-06T09:18:14.055Z,112.70
2019-04-06T09:20:43.336Z,112.73
2019-04-06T09:23:12.570Z,120.97
2019-04-06T09:25:41.855Z,123.07
2019-04-06T09:28:11.251Z,128.70
2019-04-06T09:30:42.072Z,127.22
2019-04-06T09:33:11.326Z,116.03
2019-04-06T09:35:40.644Z,105.43
2019-04-06T09:38:19.003Z,100.15
2019-04-06T09:40:49.404Z,98.65
2019-04-06T09:43:18.868Z,100.45
2019-04-06T09:46:07.381Z,98.05
2019-04-06T09:48:54.181Z,93.00
2019-04-06T09:51:41.856Z,100.97
2019-04-06T09:54:29.156Z,96.82
2019-04-06T09:57:19.698Z,93.67
2019-04-06T09:59:57.666Z,95.45
2019-04-06T10:02:35.297Z,95.25
2019-04-06T10:05:17.858Z,95.55
2019-04-06T10:08:07.887Z,94.72
2019-04-06T10:10:43.736Z,93.30
2019-04-06T10:13:23.423Z,95.85
2019-04-06T10:16:02.292Z,97.08
2019-04-06T10:18:51.087Z,97.80
2019-04-06T10:21:56.332Z,92.72
2019-04-06T10:24:33.969Z,91.37
2019-04-06T10:27:13.020Z,86.63
2019-04-06T10:30:03.904Z,91.75
2019-04-06T10:32:49.965Z,90.38
2019-04-06T10:35:37.204Z,86.80
2019-04-06T10:38:17.897Z,84.15
2019-04-06T10:41:02.433Z,87.17
2019-04-06T10:43:53.978Z,88.78
2019-04-06T10:46:45.195Z,90.92
2019-04-06T10:49:32.322Z,87.95
2019-04-06T10:52:29.584Z,90.00
2019-04-06T10:55:10.364Z,90.30
2019-04-06T10:57:57.136Z,90.03
2019-04-06T11:00:32.093Z,88.63
2019-04-06T11:03:09.624Z,88.60
2019-04-06T11:05:57.882Z,91.57
2019-04-06T11:08:52.185Z,91.32
2019-04-06T11:11:37.581Z,92.22
2019-04-06T11:14:30.620Z,88.10
2019-04-06T11:17:17.789Z,81.32
2019-04-06T11:20:06.503Z,89.55
2019-04-06T11:22:50.542Z,90.17
2019-04-06T11:25:36.723Z,81.17
2019-04-06T11:28:26.771Z,83.07
2019-04-06T11:31:14.269Z,79.75
2019-04-06T11:34:15.035Z,81.65
2019-04-06T11:36:56.754Z,88.55
2019-04-06T11:39:48.293Z,80.65
2019-04-06T11:42:28.044Z,78.83
2019-04-06T11:45:03.407Z,77.30
2019-04-06T11:47:54.236Z,77.08
2019-04-06T11:50:45.503Z,84.97
2019-04-06T11:53:36.395Z,78.90
2019-04-06T11:56:22.909Z,78.57
2019-04-06T11:59:29.334Z,83.42
2019-04-06T12:02:23.441Z,76.77
2019-04-06T12:05:02.709Z,77.90
2019-04-06T12:07:53.616Z,78.87
2019-04-06T12:10:28.336Z,81.63
2019-04-06T12:13:15.650Z,73.30
2019-04-06T12:15:55.196Z,74.58
2019-04-06T12:18:49.513Z,75.35
2019-04-06T12:21:53.897Z,75.80
2019-04-06T12:24:42.283Z,73.43
2019-04-06T12:27:21.946Z,80.57
2019-04-06T12:30:36.938Z,76.67
2019-04-06T12:33:13.384Z,78.92
2019-04-06T12:36:16.914Z,79.32
2019-04-06T12:39:10.949Z,74.00
2019-04-06T12:42:02.607Z,78.55
2019-04-06T12:44:49.741Z,74.27
2019-04-06T12:47:38.312Z,75.35
2019-04-06T12:50:37.515Z,77.70
2019-04-06T12:53:19.516Z,74.05
2019-04-06T12:56:06.220Z,75.62
2019-04-06T12:59:04.297Z,72.60
2019-04-06T13:01:52.494Z,74.87
2019-04-06T13:04:40.512Z,74.13
2019-04-06T13:07:43.766Z,74.75
2019-04-06T13:10:25.905Z,72.35
2019-04-06T13:13:17.152Z,71.33
2019-04-06T13:15:51.957Z,70.52
2019-04-06T13:18:40.094Z,69.77
2019-04-06T13:21:26.979Z,69.72
2019-04-06T13:24:05.352Z,68.65
2019-04-06T13:26:42.204Z,70.15
2019-04-06T13:29:36.239Z,66.97
2019-04-06T13:32:27.631Z,72.03
2019-04-06T13:35:16.144Z,71.60
2019-04-06T13:38:15.083Z,74.47
2019-04-06T13:41:07.724Z,73.27
2019-04-06T13:43:42.719Z,76.05
2019-04-06T13:46:27.423Z,70.27
2019-04-06T13:49:18.856Z,71.55
2019-04-06T13:52:12.463Z,69.87
2019-04-06T13:54:55.697Z,69.12
2019-04-06T13:57:43.798Z,65.28
2019-04-06T14:00:50.572Z,64.53
2019-04-06T14:03:36.863Z,60.23
2019-04-06T14:06:23.835Z,62.88
2019-04-06T14:09:29.887Z,64.13
2019-04-06T14:12:07.633Z,65.20
2019-04-06T14:14:51.123Z,65.67
2019-04-06T14:17:57.700Z,64.90
2019-04-06T14:20:36.808Z,66.17
2019-04-06T14:23:22.945Z,64.53
2019-04-06T14:26:10.132Z,63.37
2019-04-06T14:28:50.542Z,64.70
2019-04-06T14:31:35.814Z,67.00
2019-04-06T14:34:36.189Z,71.63
2019-04-06T14:37:23.320Z,65.60
2019-04-06T14:40:10.589Z,70.73
2019-04-06T14:43:05.086Z,67.67
2019-04-06T14:46:00.431Z,63.60
2019-04-06T14:48:51.456Z,67.37
2019-04-06T14:51:32.137Z,66.33
2019-04-06T14:54:08.189Z,67.30
2019-04-06T14:56:53.587Z,62.73
2019-04-06T14:59:47.531Z,66.40
2019-04-06T15:02:32.694Z,61.83
2019-04-06T15:05:33.539Z,61.63
2019-04-06T15:08:27.935Z,63.03
2019-04-06T15:11:25.107Z,59.03
2019-04-06T15:14:16.423Z,63.03
2019-04-06T15:17:00.134Z,65.90
2019-04-06T15:19:36.954Z,65.70
2019-04-06T15:22:19.662Z,61.97
2019-04-06T15:25:09.237Z,63.73
2019-04-06T15:27:44.990Z,59.80
2019-04-06T15:30:39.631Z,60.60
2019-04-06T15:33:34.568Z,65.50
2019-04-06T15:36:31.957Z,65.03
2019-04-06T15:39:26.237Z,65.27
2019-04-06T15:42:06.968Z,62.47
2019-04-06T15:44:56.180Z,63.97
2019-04-06T15:47:53.339Z,65.53
2019-04-06T15:50:40.658Z,58.97
2019-04-06T15:53:27.474Z,55.37
2019-04-06T15:56:14.300Z,53.37
2019-04-06T15:59:08.409Z,57.20
2019-04-06T16:02:01.342Z,59.63
2019-04-06T16:04:49.164Z,57.93
2019-04-06T16:07:36.226Z,57.07
2019-04-06T16:10:28.285Z,56.13
2019-04-06T16:13:34.646Z,53.93
2019-04-06T16:16:13.356Z,53.10
2019-04-06T16:19:04.878Z,58.70
2019-04-06T16:21:53.273Z,54.63
2019-04-06T16:24:39.504Z,54.37
2019-04-06T16:27:39.917Z,56.60
2019-04-06T16:30:37.679Z,56.10
2019-04-06T16:33:26.193Z,55.20
2019-04-06T16:36:23.419Z,55.23
2019-04-06T16:39:13.149Z,56.23
2019-04-06T16:42:07.651Z,54.57
2019-04-06T16:44:49.190Z,54.27
2019-04-06T16:47:27.994Z,53.67
2019-04-06T16:50:37.963Z,52.67
2019-04-06T16:53:25.318Z,53.57
2019-04-06T16:56:18.974Z,53.90
2019-04-06T16:58:54.285Z,54.57
2019-04-06T17:01:52.416Z,58.17
2019-04-06T17:04:29.473Z,55.93
2019-04-06T17:07:28.536Z,54.07
2019-04-06T17:10:20.667Z,60.47
2019-04-06T17:13:23.666Z,56.47
2019-04-06T17:16:18.103Z,54.87
2019-04-06T17:19:11.315Z,55.03
2019-04-06T17:21:55.647Z,53.60
2019-04-06T17:24:49.676Z,61.90
2019-04-06T17:27:40.960Z,57.60
2019-04-06T17:30:29.173Z,59.97
2019-04-06T17:33:13.034Z,58.17
2019-04-06T17:35:51.846Z,66.10
2019-04-06T17:38:40.004Z,65.40
2019-04-06T17:41:34.128Z,63.97
2019-04-06T17:44:20.979Z,68.57
2019-04-06T17:47:07.872Z,68.13
2019-04-06T17:49:59.242Z,68.97
2019-04-06T17:52:47.465Z,70.37
2019-04-06T17:55:34.720Z,70.60
2019-04-06T17:58:21.763Z,72.70
2019-04-06T18:01:10.161Z,73.27
2019-04-06T18:03:59.336Z,77.17
2019-04-06T18:07:02.578Z,74.70
2019-04-06T18:09:47.123Z,77.30
2019-04-06T18:12:23.597Z,73.50
2019-04-06T18:14:52.982Z,76.67
2019-04-06T18:17:22.209Z,74.17
2019-04-06T18:19:51.965Z,72.43
2019-04-06T18:22:21.149Z,75.90
2019-04-06T18:24:50.330Z,75.97
2019-04-06T18:27:19.556Z,79.70
2019-04-06T18:29:49.290Z,83.50
2019-04-06T18:32:35.967Z,81.43
2019-04-06T18:35:05.416Z,84.20
2019-04-06T18:38:02.774Z,88.67
2019-04-06T18:40:32.964Z,87.53
2019-04-06T18:43:03.378Z,89.73
2019-04-06T18:45:33.550Z,85.23
2019-04-06T18:48:02.754Z,86.23
2019-04-06T18:50:35.974Z,88.03
2019-04-06T18:53:03.416Z,88.83
2019-04-06T18:55:32.756Z,86.60
2019-04-06T18:58:10.699Z,95.97
2019-04-06T19:00:33.551Z,80.63
2019-04-06T19:03:12.564Z,86.70
2019-04-06T19:05:33.902Z,80.47
2019-04-06T19:08:03.125Z,88.03
2019-04-06T19:10:32.629Z,84.07
2019-04-06T19:13:02.162Z,99.47
2019-04-06T19:15:32.062Z,87.03
2019-04-06T19:18:02.174Z,90.43
2019-04-06T19:20:31.955Z,89.23
2019-04-06T19:23:01.469Z,87.77
2019-04-06T19:25:30.797Z,84.90
2019-04-06T19:28:00.146Z,91.30
2019-04-06T19:30:29.708Z,89.87
2019-04-06T19:32:59.089Z,90.37
2019-04-06T19:35:29.206Z,95.90
2019-04-06T19:38:00.519Z,86.43
2019-04-06T19:40:30.292Z,81.43
2019-04-06T19:43:00.033Z,82.90
2019-04-06T19:45:29.331Z,92.73
2019-04-06T19:47:58.740Z,84.87
2019-04-06T19:50:29.014Z,82.90
2019-04-06T19:52:58.519Z,84.10
2019-04-06T19:55:28.120Z,84.27
2019-04-06T19:57:57.450Z,85.53
2019-04-06T20:00:27.260Z,90.97
2019-04-06T20:02:56.552Z,79.90
2019-04-06T20:05:26.321Z,86.33
2019-04-06T20:07:55.816Z,87.13
2019-04-06T20:10:25.218Z,80.10
2019-04-06T20:12:54.682Z,83.43
2019-04-06T20:15:24.326Z,82.00
2019-04-06T20:17:53.831Z,82.07
2019-04-06T20:20:23.261Z,88.77
2019-04-06T20:22:52.767Z,81.60
2019-04-06T20:25:22.061Z,80.37
2019-04-06T20:27:51.312Z,79.90
2019-04-06T20:30:21.661Z,82.93
2019-04-06T20:32:51.186Z,75.53
2019-04-06T20:35:21.205Z,80.57
2019-04-06T20:37:50.361Z,84.50
2019-04-06T20:40:19.709Z,80.20
2019-04-06T20:42:49.477Z,76.17
2019-04-06T20:45:19.223Z,79.87
2019-04-06T20:47:48.591Z,82.83
2019-04-06T20:50:18.010Z,76.63
2019-04-06T20:52:47.312Z,82.10
2019-04-06T20:55:16.692Z,77.73
2019-04-06T20:57:46.164Z,87.87
2019-04-06T21:00:15.523Z,79.57
2019-04-06T21:02:45.145Z,83.47
2019-04-06T21:05:14.810Z,81.27
2019-04-06T21:07:44.074Z,84.37
2019-04-06T21:10:15.786Z,80.33
2019-04-06T21:12:44.989Z,73.23
2019-04-06T21:15:20.018Z,73.77
2019-04-06T21:17:46.083Z,69.70
2019-04-06T21:20:18.387Z,76.70
2019-04-06T21:22:47.674Z,77.70
2019-04-06T21:25:16.915Z,73.97
2019-04-06T21:27:46.454Z,72.97
2019-04-06T21:30:17.349Z,71.83
2019-04-06T21:32:48.773Z,72.97
2019-04-06T21:35:18.117Z,77.97
2019-04-06T21:37:47.294Z,68.83
2019-04-06T21:40:19.773Z,76.50
2019-04-06T21:42:49.909Z,70.83
2019-04-06T21:45:19.671Z,68.23
2019-04-06T21:47:49.539Z,69.63
2019-04-06T21:50:18.874Z,68.20
2019-04-06T21:52:49.365Z,75.63
2019-04-06T21:55:19.486Z,77.73
2019-04-06T21:57:48.751Z,80.83
2019-04-06T22:00:27.800Z,70.47
2019-04-06T22:02:56.906Z,72.17
2019-04-06T22:05:26.245Z,72.97
2019-04-06T22:07:56.105Z,74.07
2019-04-06T22:10:25.337Z,73.00
2019-04-06T22:12:54.713Z,76.40
2019-04-06T22:15:23.944Z,67.13
2019-04-06T22:17:53.356Z,73.57
2019-04-06T22:20:28.065Z,67.97
2019-04-06T22:22:57.373Z,70.47
2019-04-06T22:25:26.516Z,66.73
2019-04-06T22:27:55.728Z,72.27
2019-04-06T22:30:24.858Z,72.53
2019-04-06T22:32:54.025Z,70.80
2019-04-06T22:35:23.247Z,71.27
2019-04-06T22:37:54.709Z,71.80
2019-04-06T22:40:23.873Z,68.03
2019-04-06T22:42:53.074Z,67.50
2019-04-06T22:45:23.208Z,68.13
2019-04-06T22:47:52.361Z,67.23
2019-04-06T22:50:22.056Z,71.37
2019-04-06T22:52:51.522Z,69.97
2019-04-06T22:55:21.003Z,75.03
2019-04-06T22:57:50.467Z,69.10
2019-04-06T23:00:29.587Z,69.00
2019-04-06T23:03:16.796Z,65.10
2019-04-06T23:05:48.964Z,61.97
2019-04-06T23:08:18.165Z,64.40
2019-04-06T23:10:47.581Z,63.07
2019-04-06T23:13:17.774Z,62.40
2019-04-06T23:15:47.991Z,63.23
2019-04-06T23:18:18.037Z,58.70
2019-04-06T23:20:47.555Z,60.70
2019-04-06T23:23:16.702Z,68.43
2019-04-06T23:25:46.453Z,58.70
2019-04-06T23:28:15.993Z,64.07
2019-04-06T23:30:45.315Z,67.83
2019-04-06T23:33:14.776Z,65.53
2019-04-06T23:35:44.033Z,68.63
2019-04-06T23:38:13.313Z,67.17
2019-04-06T23:40:42.466Z,63.97
2019-04-06T23:43:11.850Z,69.03
2019-04-06T23:45:41.189Z,67.03
2019-04-06T23:48:10.749Z,74.10
2019-04-06T23:50:40.512Z,68.00
2019-04-06T23:53:11.500Z,69.07
2019-04-06T23:55:41.091Z,70.23
2019-04-06T23:58:10.844Z,69.27
